createdAt,value
2022-08-09T00:00:21.189Z,19.50
2022-08-09T00:02:49.830Z,19.60
2022-08-09T00:06:18.729Z,19.60
2022-08-09T00:08:10.224Z,19.60
2022-08-09T00:10:41.175Z,19.60
2022-08-09T00:13:17.680Z,19.60
2022-08-09T00:15:58.896Z,19.60
2022-08-09T00:18:31.456Z,19.50
2022-08-09T00:21:04.270Z,19.50
2022-08-09T00:23:55.161Z,19.50
2022-08-09T00:26:18.054Z,19.50
2022-08-09T00:28:52.672Z,19.40
2022-08-09T00:31:57.375Z,19.40
2022-08-09T00:34:10.842Z,19.30
2022-08-09T00:36:38.087Z,19.20
2022-08-09T00:39:17.009Z,19.10
2022-08-09T00:44:14.338Z,19.20
2022-08-09T00:44:43.547Z,19.20
2022-08-09T00:47:15.510Z,19.20
2022-08-09T00:49:52.456Z,19.30
2022-08-09T00:52:22.836Z,19.30
2022-08-09T00:54:58.588Z,19.20
2022-08-09T00:57:35.101Z,19.10
2022-08-09T01:00:20.577Z,19.10
2022-08-09T01:03:06.950Z,19.20
2022-08-09T01:05:53.654Z,19.10
2022-08-09T01:08:28.306Z,19.00
2022-08-09T01:11:16.151Z,19.10
2022-08-09T01:13:59.586Z,19.00
2022-08-09T01:16:40.980Z,18.80
2022-08-09T01:19:42.366Z,18.70
2022-08-09T01:22:51.143Z,18.70
2022-08-09T01:25:48.958Z,18.70
2022-08-09T01:28:20.091Z,18.70
2022-08-09T01:30:53.099Z,18.60
2022-08-09T01:33:25.698Z,18.70
2022-08-09T01:36:06.033Z,18.70
2022-08-09T01:38:40.674Z,18.60
2022-08-09T01:41:26.113Z,18.60
2022-08-09T01:43:58.910Z,18.50
2022-08-09T01:46:30.263Z,18.50
2022-08-09T01:49:10.392Z,18.50
2022-08-09T01:51:44.287Z,18.60
2022-08-09T01:54:13.623Z,18.50
2022-08-09T01:56:51.413Z,18.50
2022-08-09T01:59:23.116Z,18.40
2022-08-09T02:01:59.555Z,18.50
2022-08-09T02:04:30.838Z,18.60
2022-08-09T02:07:17.803Z,18.40
2022-08-09T02:10:10.926Z,18.40
2022-08-09T02:12:39.546Z,18.40
2022-08-09T02:15:11.713Z,18.30
2022-08-09T02:18:00.908Z,18.40
2022-08-09T02:20:41.012Z,18.30
2022-08-09T02:23:25.760Z,18.30
2022-08-09T02:26:01.200Z,18.40
2022-08-09T02:28:40.323Z,18.30
2022-08-09T02:31:21.860Z,18.40
2022-08-09T02:34:06.629Z,18.30
2022-08-09T02:36:42.062Z,18.30
2022-08-09T02:39:19.915Z,18.30
2022-08-09T02:42:05.575Z,18.30
2022-08-09T02:44:40.298Z,18.20
2022-08-09T02:47:12.419Z,18.10
2022-08-09T02:49:45.466Z,18.20
2022-08-09T02:52:16.213Z,18.30
2022-08-09T02:54:53.881Z,18.20
2022-08-09T02:57:23.521Z,18.20
2022-08-09T03:00:20.630Z,18.20
2022-08-09T03:02:57.988Z,18.20
2022-08-09T03:05:26.618Z,18.10
2022-08-09T03:07:55.665Z,18.10
2022-08-09T03:10:24.883Z,18.00
2022-08-09T03:12:53.152Z,18.00
2022-08-09T03:15:22.889Z,17.90
2022-08-09T03:17:53.890Z,17.90
2022-08-09T03:20:29.493Z,18.00
2022-08-09T03:22:58.452Z,18.00
2022-08-09T03:25:59.237Z,17.90
2022-08-09T03:28:30.403Z,17.90
2022-08-09T03:30:58.375Z,17.90
2022-08-09T03:33:54.623Z,18.00
2022-08-09T03:36:15.707Z,17.90
2022-08-09T03:38:43.654Z,17.90
2022-08-09T03:41:15.121Z,17.90
2022-08-09T03:44:04.070Z,17.90
2022-08-09T03:46:31.336Z,17.90
2022-08-09T03:49:04.015Z,17.90
2022-08-09T03:51:57.326Z,17.90
2022-08-09T03:54:29.230Z,17.90
2022-08-09T03:56:59.722Z,17.80
2022-08-09T03:59:53.632Z,17.90
2022-08-09T04:02:14.487Z,17.90
2022-08-09T04:04:45.613Z,17.90
2022-08-09T04:07:14.449Z,17.80
2022-08-09T04:09:47.557Z,17.70
2022-08-09T04:12:40.669Z,17.80
2022-08-09T04:15:17.140Z,17.70
2022-08-09T04:17:51.362Z,17.80
2022-08-09T04:20:19.165Z,17.80
2022-08-09T04:22:46.585Z,17.80
2022-08-09T04:25:13.594Z,17.90
2022-08-09T04:27:41.762Z,17.80
2022-08-09T04:30:13.949Z,17.90
2022-08-09T04:32:45.806Z,17.90
2022-08-09T04:35:14.434Z,17.70
2022-08-09T04:37:45.870Z,17.80
2022-08-09T04:40:19.004Z,17.80
2022-08-09T04:42:56.812Z,17.80
2022-08-09T04:45:23.900Z,18.00
2022-08-09T04:47:59.199Z,18.00
2022-08-09T04:50:33.683Z,18.00
2022-08-09T04:53:13.141Z,18.00
2022-08-09T04:55:58.507Z,18.10
2022-08-09T04:58:32.900Z,18.00
2022-08-09T05:01:02.062Z,18.00
2022-08-09T05:03:40.190Z,18.10
2022-08-09T05:06:27.117Z,18.00
2022-08-09T05:09:00.363Z,18.10
2022-08-09T05:11:32.304Z,18.20
2022-08-09T05:14:06.187Z,18.20
2022-08-09T05:16:58.290Z,18.20
2022-08-09T05:19:24.434Z,18.20
2022-08-09T05:21:56.391Z,18.40
2022-08-09T05:24:24.723Z,18.40
2022-08-09T05:26:52.795Z,18.50
2022-08-09T05:29:21.552Z,18.40
2022-08-09T05:31:56.347Z,18.50
2022-08-09T05:34:30.230Z,18.70
2022-08-09T05:37:06.747Z,18.80
2022-08-09T05:39:43.367Z,18.80
2022-08-09T05:42:17.793Z,18.80
2022-08-09T05:44:52.552Z,18.90
2022-08-09T05:47:21.426Z,18.90
2022-08-09T05:50:28.137Z,19.00
2022-08-09T05:52:36.785Z,19.10
2022-08-09T05:55:08.930Z,19.10
2022-08-09T05:57:55.241Z,19.10
2022-08-09T06:00:25.781Z,19.10
2022-08-09T06:02:54.222Z,19.30
2022-08-09T06:05:30.464Z,19.20
2022-08-09T06:08:08.907Z,19.10
2022-08-09T06:10:38.965Z,19.00
2022-08-09T06:13:12.495Z,19.20
2022-08-09T06:15:46.852Z,19.10
2022-08-09T06:18:15.679Z,19.00
2022-08-09T06:20:43.070Z,19.10
2022-08-09T06:23:21.055Z,19.20
2022-08-09T06:25:49.687Z,19.30
2022-08-09T06:28:22.402Z,19.30
2022-08-09T06:30:54.324Z,19.40
2022-08-09T06:33:39.660Z,19.40
2022-08-09T06:36:08.872Z,19.30
2022-08-09T06:38:37.761Z,19.20
2022-08-09T06:41:09.413Z,19.40
2022-08-09T06:43:46.159Z,19.40
2022-08-09T06:46:39.210Z,19.60
2022-08-09T06:49:00.477Z,19.50
2022-08-09T06:51:27.966Z,19.60
2022-08-09T06:53:55.625Z,19.80
2022-08-09T06:56:31.074Z,19.60
2022-08-09T07:00:52.796Z,19.90
2022-08-09T07:01:54.110Z,19.90
2022-08-09T07:04:27.129Z,19.90
2022-08-09T07:07:00.355Z,19.70
2022-08-09T07:09:55.892Z,19.80
2022-08-09T07:12:18.045Z,20.00
2022-08-09T07:16:39.741Z,20.00
2022-08-09T07:17:56.116Z,20.00
2022-08-09T07:20:23.546Z,20.20
2022-08-09T07:22:54.320Z,20.30
2022-08-09T07:25:21.381Z,20.30
2022-08-09T07:27:53.581Z,20.20
2022-08-09T07:30:24.333Z,20.50
2022-08-09T07:32:51.737Z,20.50
2022-08-09T07:35:19.416Z,20.50
2022-08-09T07:37:48.007Z,20.40
2022-08-09T07:40:20.586Z,20.40
2022-08-09T07:42:59.139Z,20.60
2022-08-09T07:45:39.473Z,20.60
2022-08-09T07:48:22.517Z,20.70
2022-08-09T07:51:09.227Z,20.80
2022-08-09T07:54:06.521Z,20.90
2022-08-09T07:56:33.622Z,21.10
2022-08-09T07:59:01.604Z,21.00
2022-08-09T08:01:33.103Z,21.20
2022-08-09T08:04:01.666Z,21.20
2022-08-09T08:06:32.047Z,21.20
2022-08-09T08:09:04.435Z,21.40
2022-08-09T08:12:10.047Z,21.30
2022-08-09T08:14:18.998Z,21.40
2022-08-09T08:17:00.801Z,21.40
2022-08-09T08:19:34.825Z,21.50
2022-08-09T08:22:02.458Z,21.50
2022-08-09T08:24:39.867Z,21.60
2022-08-09T08:27:16.638Z,21.70
2022-08-09T08:29:50.051Z,21.60
2022-08-09T08:32:24.198Z,21.80
2022-08-09T08:34:58.770Z,22.10
2022-08-09T08:37:41.429Z,21.90
2022-08-09T08:40:16.268Z,21.90
2022-08-09T08:42:47.103Z,22.00
2022-08-09T08:45:16.461Z,22.30
2022-08-09T08:47:45.148Z,22.30
2022-08-09T08:50:18.303Z,22.30
2022-08-09T08:52:59.089Z,22.30
2022-08-09T08:55:27.959Z,22.50
2022-08-09T08:57:57.103Z,22.80
2022-08-09T09:00:30.527Z,23.00
2022-08-09T09:03:08.567Z,22.80
2022-08-09T09:05:59.020Z,23.00
2022-08-09T09:08:40.381Z,23.10
2022-08-09T09:11:08.595Z,23.30
2022-08-09T09:13:57.300Z,23.30
2022-08-09T09:16:34.446Z,23.10
2022-08-09T09:19:40.084Z,23.50
2022-08-09T09:22:07.864Z,23.60
2022-08-09T09:24:47.299Z,23.60
2022-08-09T09:28:06.150Z,23.50
2022-08-09T09:30:35.952Z,23.80
2022-08-09T09:33:14.352Z,23.90
2022-08-09T09:36:02.216Z,23.80
2022-08-09T09:38:47.183Z,23.80
2022-08-09T09:41:39.943Z,24.10
2022-08-09T09:44:27.743Z,24.20
2022-08-09T09:47:04.497Z,24.20
2022-08-09T09:49:50.066Z,24.50
2022-08-09T09:52:37.477Z,24.70
2022-08-09T09:55:16.398Z,24.40
2022-08-09T09:58:17.140Z,24.60
2022-08-09T10:00:52.471Z,25.00
2022-08-09T10:03:44.682Z,24.80
2022-08-09T10:06:23.868Z,25.00
2022-08-09T10:08:58.582Z,24.90
2022-08-09T10:11:59.219Z,24.80
2022-08-09T10:14:32.948Z,24.70
2022-08-09T10:17:39.318Z,24.70
2022-08-09T10:20:00.788Z,24.80
2022-08-09T10:22:36.078Z,24.90
2022-08-09T10:25:12.392Z,24.60
2022-08-09T10:27:55.868Z,24.70
2022-08-09T10:34:07.862Z,25.50
2022-08-09T10:36:00.886Z,25.90
2022-08-09T10:38:55.364Z,26.10
2022-08-09T10:41:17.777Z,26.10
2022-08-09T10:44:01.110Z,26.10
2022-08-09T10:46:28.869Z,26.10
2022-08-09T10:49:21.559Z,26.40
2022-08-09T10:52:20.352Z,26.50
2022-08-09T10:55:18.793Z,26.30
2022-08-09T10:57:45.902Z,26.40
2022-08-09T11:00:56.906Z,26.40
2022-08-09T11:03:50.025Z,26.30
2022-08-09T11:06:19.710Z,26.50
2022-08-09T11:08:51.223Z,26.50
2022-08-09T11:11:22.011Z,26.50
2022-08-09T11:14:28.072Z,26.70
2022-08-09T11:16:57.049Z,26.50
2022-08-09T11:20:10.302Z,26.50
2022-08-09T11:22:43.274Z,26.80
2022-08-09T11:25:12.514Z,27.40
2022-08-09T11:28:02.490Z,27.50
2022-08-09T11:30:36.388Z,27.60
2022-08-09T11:33:25.907Z,27.10
2022-08-09T11:35:58.378Z,27.40
2022-08-09T11:38:32.484Z,27.30
2022-08-09T11:41:12.930Z,27.50
2022-08-09T11:43:48.660Z,27.30
2022-08-09T11:46:26.486Z,27.60
2022-08-09T11:49:05.293Z,27.60
2022-08-09T11:53:04.402Z,27.40
2022-08-09T11:55:51.658Z,27.20
2022-08-09T11:58:14.692Z,26.90
2022-08-09T12:01:09.007Z,26.60
2022-08-09T12:03:57.272Z,27.00
2022-08-09T12:06:32.788Z,27.30
2022-08-09T12:09:06.094Z,27.20
2022-08-09T12:12:03.229Z,27.30
2022-08-09T12:14:37.090Z,27.20
2022-08-09T12:17:27.942Z,27.30
2022-08-09T12:20:00.751Z,27.50
2022-08-09T12:22:29.208Z,27.70
2022-08-09T12:25:37.492Z,27.90
2022-08-09T12:29:11.528Z,28.60
2022-08-09T12:31:01.187Z,27.80
2022-08-09T12:33:50.794Z,28.20
2022-08-09T12:36:31.239Z,28.10
2022-08-09T12:39:00.151Z,28.20
2022-08-09T12:41:30.956Z,27.90
2022-08-09T12:44:06.590Z,27.90
2022-08-09T12:46:36.225Z,27.90
2022-08-09T12:49:03.754Z,28.20
2022-08-09T12:51:52.691Z,28.20
2022-08-09T12:54:17.913Z,28.20
2022-08-09T12:56:53.789Z,28.20
2022-08-09T12:59:24.904Z,28.50
2022-08-09T13:02:11.745Z,28.80
2022-08-09T13:04:42.116Z,28.60
2022-08-09T13:07:11.852Z,28.50
2022-08-09T13:09:41.020Z,28.40
2022-08-09T13:12:10.540Z,28.70
2022-08-09T13:14:44.334Z,28.40
2022-08-09T13:17:43.926Z,28.10
2022-08-09T13:20:17.443Z,28.70
2022-08-09T13:23:04.927Z,28.80
2022-08-09T13:25:53.031Z,28.30
2022-08-09T13:28:33.827Z,28.80
2022-08-09T13:32:14.840Z,28.70
2022-08-09T13:33:57.222Z,28.70
2022-08-09T13:36:41.383Z,28.30
2022-08-09T13:41:17.773Z,28.70
2022-08-09T13:42:12.610Z,28.80
2022-08-09T13:44:42.161Z,29.00
2022-08-09T13:47:33.811Z,29.10
2022-08-09T13:50:17.819Z,28.90
2022-08-09T13:52:46.453Z,28.40
2022-08-09T13:55:17.718Z,28.80
2022-08-09T13:57:55.933Z,29.00
2022-08-09T14:00:28.685Z,28.70
2022-08-09T14:03:57.901Z,28.90
2022-08-09T14:05:56.892Z,28.60
2022-08-09T14:08:29.782Z,28.80
2022-08-09T14:10:57.160Z,28.90
2022-08-09T14:14:15.153Z,29.00
2022-08-09T14:16:17.699Z,29.30
2022-08-09T14:18:49.485Z,29.10
2022-08-09T14:21:20.312Z,28.90
2022-08-09T14:23:55.175Z,29.20
2022-08-09T14:26:32.795Z,29.30
2022-08-09T14:29:02.697Z,28.90
2022-08-09T14:31:50.260Z,28.70
2022-08-09T14:34:30.773Z,28.70
2022-08-09T14:36:59.653Z,28.90
2022-08-09T14:39:46.183Z,28.80
2022-08-09T14:42:13.568Z,28.80
2022-08-09T14:46:57.306Z,28.40
2022-08-09T14:48:06.680Z,28.70
2022-08-09T14:50:36.857Z,28.70
2022-08-09T14:53:11.514Z,28.80
2022-08-09T14:55:50.189Z,29.10
2022-08-09T14:58:18.438Z,28.70
2022-08-09T15:00:48.223Z,29.00
2022-08-09T15:03:20.243Z,28.80
2022-08-09T15:05:52.576Z,28.70
2022-08-09T15:08:30.325Z,28.70
2022-08-09T15:11:00.469Z,28.90
2022-08-09T15:13:28.378Z,29.00
2022-08-09T15:16:14.823Z,29.00
2022-08-09T15:18:42.024Z,28.50
2022-08-09T15:22:00.475Z,28.60
2022-08-09T15:24:09.042Z,28.50
2022-08-09T15:26:45.484Z,28.20
2022-08-09T15:30:48.926Z,28.40
2022-08-09T15:32:02.185Z,28.60
2022-08-09T15:34:34.550Z,28.70
2022-08-09T15:37:04.175Z,28.50
2022-08-09T15:39:43.743Z,28.60
2022-08-09T15:42:19.170Z,28.50
2022-08-09T15:44:46.368Z,28.80
2022-08-09T15:47:14.600Z,28.50
2022-08-09T15:50:03.788Z,28.10
2022-08-09T15:52:32.535Z,28.30
2022-08-09T15:55:00.544Z,28.40
2022-08-09T15:57:34.307Z,28.30
2022-08-09T16:00:11.078Z,28.30
2022-08-09T16:02:43.106Z,28.40
2022-08-09T16:05:22.296Z,28.40
2022-08-09T16:07:50.663Z,28.40
2022-08-09T16:10:38.807Z,28.10
2022-08-09T16:13:20.840Z,28.00
2022-08-09T16:16:10.448Z,28.30
2022-08-09T16:18:44.675Z,28.50
2022-08-09T16:21:17.293Z,28.00
2022-08-09T16:23:55.759Z,28.10
2022-08-09T16:26:33.392Z,27.90
2022-08-09T16:29:10.459Z,27.80
2022-08-09T16:32:19.900Z,27.90
2022-08-09T16:34:53.420Z,27.70
2022-08-09T16:37:20.475Z,27.60
2022-08-09T16:40:08.583Z,27.80
2022-08-09T16:42:36.026Z,27.50
2022-08-09T16:45:04.710Z,27.70
2022-08-09T16:48:41.362Z,27.80
2022-08-09T16:50:29.847Z,27.60
2022-08-09T16:53:01.385Z,27.50
2022-08-09T16:55:31.541Z,27.40
2022-08-09T16:58:16.812Z,27.50
2022-08-09T17:00:44.020Z,27.50
2022-08-09T17:03:21.360Z,27.60
2022-08-09T17:06:06.887Z,27.40
2022-08-09T17:08:43.877Z,27.20
2022-08-09T17:11:15.173Z,27.10
2022-08-09T17:13:45.285Z,27.00
2022-08-09T17:16:12.307Z,26.80
2022-08-09T17:18:39.205Z,26.60
2022-08-09T17:21:06.139Z,26.40
2022-08-09T17:24:21.209Z,26.30
2022-08-09T17:26:29.380Z,26.20
2022-08-09T17:28:59.914Z,26.10
2022-08-09T17:31:26.908Z,26.10
2022-08-09T17:33:56.866Z,26.00
2022-08-09T17:36:25.953Z,26.00
2022-08-09T17:38:57.498Z,26.00
2022-08-09T17:41:38.866Z,25.90
2022-08-09T17:44:38.451Z,25.80
2022-08-09T17:46:55.634Z,25.70
2022-08-09T17:49:24.497Z,25.70
2022-08-09T17:51:51.713Z,25.60
2022-08-09T17:54:19.274Z,25.60
2022-08-09T17:56:52.198Z,25.60
2022-08-09T17:59:19.691Z,25.50
2022-08-09T18:02:06.770Z,25.50
2022-08-09T18:04:33.673Z,25.40
2022-08-09T18:07:04.567Z,25.40
2022-08-09T18:09:40.541Z,25.30
2022-08-09T18:12:20.037Z,25.20
2022-08-09T18:14:54.956Z,25.20
2022-08-09T18:18:02.959Z,25.10
2022-08-09T18:20:55.366Z,25.10
2022-08-09T18:23:05.658Z,25.00
2022-08-09T18:25:50.493Z,25.00
2022-08-09T18:30:36.401Z,24.90
2022-08-09T18:31:12.567Z,24.90
2022-08-09T18:33:40.231Z,24.80
2022-08-09T18:36:08.933Z,24.70
2022-08-09T18:38:41.465Z,24.70
2022-08-09T18:41:08.742Z,24.70
2022-08-09T18:43:36.424Z,24.60
2022-08-09T18:46:47.642Z,24.50
2022-08-09T18:49:06.009Z,24.50
2022-08-09T18:51:38.131Z,24.50
2022-08-09T18:54:29.957Z,24.40
2022-08-09T18:57:05.367Z,24.30
2022-08-09T18:59:49.108Z,24.40
2022-08-09T19:02:19.190Z,24.20
2022-08-09T19:04:47.386Z,24.20
2022-08-09T19:07:16.257Z,24.20
2022-08-09T19:10:13.912Z,24.20
2022-08-09T19:12:32.071Z,24.10
2022-08-09T19:15:04.553Z,24.10
2022-08-09T19:17:47.607Z,24.00
2022-08-09T19:20:23.766Z,24.00
2022-08-09T19:22:54.516Z,23.90
2022-08-09T19:25:42.782Z,23.80
2022-08-09T19:28:13.086Z,23.80
2022-08-09T19:30:44.201Z,23.80
2022-08-09T19:33:19.221Z,23.80
2022-08-09T19:35:56.835Z,23.80
2022-08-09T19:38:26.467Z,23.80
2022-08-09T19:40:53.980Z,23.70
2022-08-09T19:43:57.837Z,23.60
2022-08-09T19:46:14.445Z,23.60
2022-08-09T19:49:02.095Z,23.50
2022-08-09T19:51:31.048Z,23.40
2022-08-09T19:53:59.658Z,23.50
2022-08-09T19:56:28.917Z,23.30
2022-08-09T19:59:40.465Z,23.30
2022-08-09T20:02:03.272Z,23.40
2022-08-09T20:04:37.336Z,23.20
2022-08-09T20:07:15.940Z,23.20
2022-08-09T20:09:48.043Z,23.10
2022-08-09T20:12:30.065Z,23.00
2022-08-09T20:15:04.770Z,22.90
2022-08-09T20:17:54.394Z,23.00
2022-08-09T20:20:22.352Z,22.80
2022-08-09T20:22:51.882Z,22.80
2022-08-09T20:25:23.913Z,22.70
2022-08-09T20:27:52.141Z,22.70
2022-08-09T20:30:23.811Z,22.70
2022-08-09T20:32:52.262Z,22.60
2022-08-09T20:35:21.027Z,22.70
2022-08-09T20:38:20.646Z,22.70
2022-08-09T20:40:35.747Z,22.70
2022-08-09T20:43:17.978Z,22.60
2022-08-09T20:45:58.643Z,22.50
2022-08-09T20:48:31.033Z,22.40
2022-08-09T20:51:03.070Z,22.40
2022-08-09T20:53:37.201Z,22.40
2022-08-09T20:56:20.544Z,22.30
2022-08-09T20:58:57.950Z,22.30
2022-08-09T21:01:35.444Z,22.30
2022-08-09T21:05:54.482Z,22.20
2022-08-09T21:07:12.429Z,22.20
2022-08-09T21:09:56.383Z,22.20
2022-08-09T21:15:14.682Z,22.20
2022-08-09T21:18:10.996Z,22.20
2022-08-09T21:20:31.030Z,22.20
2022-08-09T21:23:00.320Z,22.10
2022-08-09T21:25:55.687Z,22.00
2022-08-09T21:28:33.324Z,22.00
2022-08-09T21:31:17.856Z,22.00
2022-08-09T21:33:50.603Z,21.90
2022-08-09T21:36:19.726Z,22.00
2022-08-09T21:38:50.917Z,21.90
2022-08-09T21:41:25.563Z,22.00
2022-08-09T21:44:11.220Z,21.90
2022-08-09T21:46:38.225Z,21.90
2022-08-09T21:49:05.041Z,21.80
2022-08-09T21:51:36.121Z,21.80
2022-08-09T21:54:10.627Z,21.70
2022-08-09T21:56:54.024Z,21.70
2022-08-09T21:59:25.410Z,21.70
2022-08-09T22:01:59.479Z,21.60
2022-08-09T22:04:44.802Z,21.60
2022-08-09T22:07:35.017Z,21.60
2022-08-09T22:10:05.934Z,21.60
2022-08-09T22:12:32.930Z,21.60
2022-08-09T22:15:00.079Z,21.50
2022-08-09T22:17:28.081Z,21.60
2022-08-09T22:20:00.557Z,21.40
2022-08-09T22:22:29.263Z,21.50
2022-08-09T22:26:08.493Z,21.50
2022-08-09T22:27:43.119Z,21.50
2022-08-09T22:30:10.990Z,21.40
2022-08-09T22:32:38.448Z,21.40
2022-08-09T22:36:02.082Z,21.40
2022-08-09T22:38:03.303Z,21.40
2022-08-09T22:40:35.592Z,21.30
2022-08-09T22:43:16.213Z,21.30
2022-08-09T22:48:18.626Z,21.30
2022-08-09T22:48:35.468Z,21.30
2022-08-09T22:51:10.963Z,21.20
2022-08-09T22:53:58.656Z,21.30
2022-08-09T22:56:34.109Z,21.20
2022-08-09T22:59:55.714Z,21.10
2022-08-09T23:01:52.792Z,21.10
2022-08-09T23:04:20.139Z,21.20
2022-08-09T23:07:11.288Z,21.20
2022-08-09T23:09:39.106Z,21.00
2022-08-09T23:12:06.412Z,21.10
2022-08-09T23:14:41.988Z,21.00
2022-08-09T23:17:10.761Z,21.00
2022-08-09T23:20:06.825Z,20.90
2022-08-09T23:22:24.652Z,21.00
2022-08-09T23:24:51.631Z,21.00
2022-08-09T23:27:18.561Z,20.80
2022-08-09T23:29:45.486Z,20.90
2022-08-09T23:32:12.771Z,21.00
2022-08-09T23:34:39.548Z,20.90
2022-08-09T23:37:06.762Z,20.90
2022-08-09T23:39:33.725Z,20.90
2022-08-09T23:42:00.659Z,20.90
2022-08-09T23:44:27.589Z,20.80
2022-08-09T23:46:57.281Z,21.00
2022-08-09T23:49:25.550Z,21.00
2022-08-09T23:51:53.703Z,20.90
2022-08-09T23:54:21.815Z,20.90
2022-08-09T23:56:56.397Z,20.90
2022-08-09T23:59:25.984Z,20.80
